Terminal Aerodrome Forecast
Issued by NWS Omaha/Valley, NE

Home | Current Version | Previous Version | Graphics & Text | Print | Product List | Glossary On
Versions: 1 2 3 4 5 6 7 8 9 10 11 12 13 14 15 16 17 18 19 20 21 22 23 24 25 26 27
000
FTUS43 KOAX 221715 AAD
TAFOFK
TAF AMD
KOFK 221715Z 2217/2312 32011KT 5SM BR OVC003
     FM221900 33013KT P6SM SCT100
     FM222300 32009KT P6SM FEW250
     FM231100 VRB03KT 4SM BR SCT040=

USA.gov is the U.S. government's official web portal to all federal, state and local government web resources and services.